sensor_id;sensor_type;location;lat;lon;timestamp;P1;durP1;ratioP1;P2;durP2;ratioP2
75087;SDS011;63664;44.868;40.600;2022-10-15T00:00:49;12.18;;;4.75;;
75087;SDS011;63664;44.868;40.600;2022-10-15T00:03:16;8.35;;;3.83;;
75087;SDS011;63664;44.868;40.600;2022-10-15T00:05:42;11.85;;;4.43;;
75087;SDS011;63664;44.868;40.600;2022-10-15T00:08:09;10.02;;;4.70;;
75087;SDS011;63664;44.868;40.600;2022-10-15T00:10:37;12.68;;;4.85;;
75087;SDS011;63664;44.868;40.600;2022-10-15T00:13:03;7.65;;;4.03;;
75087;SDS011;63664;44.868;40.600;2022-10-15T00:15:30;9.73;;;3.90;;
75087;SDS011;63664;44.868;40.600;2022-10-15T00:17:57;8.45;;;4.07;;
75087;SDS011;63664;44.868;40.600;2022-10-15T00:20:23;6.10;;;4.13;;
75087;SDS011;63664;44.868;40.600;2022-10-15T00:22:49;10.98;;;4.07;;
75087;SDS011;63664;44.868;40.600;2022-10-15T00:25:16;12.57;;;4.97;;
75087;SDS011;63664;44.868;40.600;2022-10-15T00:27:42;9.75;;;4.10;;
75087;SDS011;63664;44.868;40.600;2022-10-15T00:30:08;14.40;;;4.57;;
75087;SDS011;63664;44.868;40.600;2022-10-15T00:32:35;8.45;;;3.70;;
75087;SDS011;63664;44.868;40.600;2022-10-15T00:35:04;11.38;;;4.70;;
75087;SDS011;63664;44.868;40.600;2022-10-15T00:37:31;7.82;;;4.68;;
75087;SDS011;63664;44.868;40.600;2022-10-15T00:39:57;10.98;;;4.57;;
75087;SDS011;63664;44.868;40.600;2022-10-15T00:42:23;8.00;;;4.65;;
75087;SDS011;63664;44.868;40.600;2022-10-15T00:47:29;9.27;;;4.93;;
75087;SDS011;63664;44.868;40.600;2022-10-15T00:50:24;5.63;;;3.80;;
75087;SDS011;63664;44.868;40.600;2022-10-15T00:55:31;8.73;;;4.07;;
75087;SDS011;63664;44.868;40.600;2022-10-15T00:58:04;10.38;;;4.70;;
75087;SDS011;63664;44.868;40.600;2022-10-15T01:00:34;11.65;;;4.10;;
75087;SDS011;63664;44.868;40.600;2022-10-15T01:03:00;8.88;;;4.20;;
75087;SDS011;63664;44.868;40.600;2022-10-15T01:05:27;8.18;;;4.30;;
75087;SDS011;63664;44.868;40.600;2022-10-15T01:07:54;11.57;;;4.78;;
75087;SDS011;63664;44.868;40.600;2022-10-15T01:10:20;8.45;;;4.00;;
75087;SDS011;63664;44.868;40.600;2022-10-15T01:18:03;8.13;;;4.78;;
75087;SDS011;63664;44.868;40.600;2022-10-15T01:23:52;11.57;;;4.75;;
75087;SDS011;63664;44.868;40.600;2022-10-15T01:26:57;8.27;;;5.20;;
75087;SDS011;63664;44.868;40.600;2022-10-15T01:32:35;9.77;;;4.50;;
75087;SDS011;63664;44.868;40.600;2022-10-15T01:38:58;8.27;;;4.50;;
75087;SDS011;63664;44.868;40.600;2022-10-15T01:41:38;9.10;;;4.07;;
75087;SDS011;63664;44.868;40.600;2022-10-15T01:44:01;8.95;;;4.47;;
75087;SDS011;63664;44.868;40.600;2022-10-15T01:47:35;9.63;;;5.03;;
75087;SDS011;63664;44.868;40.600;2022-10-15T01:50:09;8.18;;;4.75;;
75087;SDS011;63664;44.868;40.600;2022-10-15T01:52:39;11.60;;;4.65;;
75087;SDS011;63664;44.868;40.600;2022-10-15T01:55:09;9.73;;;4.93;;
75087;SDS011;63664;44.868;40.600;2022-10-15T01:57:41;14.52;;;5.32;;
75087;SDS011;63664;44.868;40.600;2022-10-15T02:00:09;13.52;;;4.82;;
75087;SDS011;63664;44.868;40.600;2022-10-15T02:02:40;16.23;;;5.30;;
75087;SDS011;63664;44.868;40.600;2022-10-15T02:05:10;10.05;;;5.35;;
75087;SDS011;63664;44.868;40.600;2022-10-15T02:10:38;13.05;;;5.28;;
75087;SDS011;63664;44.868;40.600;2022-10-15T02:16:08;13.18;;;5.20;;
75087;SDS011;63664;44.868;40.600;2022-10-15T02:18:39;10.63;;;5.40;;
75087;SDS011;63664;44.868;40.600;2022-10-15T02:21:51;17.20;;;5.50;;
75087;SDS011;63664;44.868;40.600;2022-10-15T02:26:51;9.82;;;4.82;;
75087;SDS011;63664;44.868;40.600;2022-10-15T02:29:22;9.02;;;5.20;;
75087;SDS011;63664;44.868;40.600;2022-10-15T02:31:52;9.60;;;5.10;;
75087;SDS011;63664;44.868;40.600;2022-10-15T02:34:24;10.20;;;4.78;;
75087;SDS011;63664;44.868;40.600;2022-10-15T02:36:52;9.93;;;4.65;;
75087;SDS011;63664;44.868;40.600;2022-10-15T02:39:21;10.32;;;5.07;;
75087;SDS011;63664;44.868;40.600;2022-10-15T02:41:55;6.78;;;4.45;;
75087;SDS011;63664;44.868;40.600;2022-10-15T02:44:24;12.07;;;4.60;;
75087;SDS011;63664;44.868;40.600;2022-10-15T02:46:50;9.35;;;4.57;;
75087;SDS011;63664;44.868;40.600;2022-10-15T02:49:18;11.38;;;4.70;;
75087;SDS011;63664;44.868;40.600;2022-10-15T02:51:47;10.93;;;5.00;;
75087;SDS011;63664;44.868;40.600;2022-10-15T02:54:15;7.80;;;4.35;;
75087;SDS011;63664;44.868;40.600;2022-10-15T02:56:45;13.35;;;5.35;;
75087;SDS011;63664;44.868;40.600;2022-10-15T02:59:13;9.80;;;4.32;;
75087;SDS011;63664;44.868;40.600;2022-10-15T03:01:40;8.48;;;4.18;;
75087;SDS011;63664;44.868;40.600;2022-10-15T03:04:08;9.88;;;4.30;;
75087;SDS011;63664;44.868;40.600;2022-10-15T03:06:35;9.23;;;4.90;;
75087;SDS011;63664;44.868;40.600;2022-10-15T03:09:02;7.85;;;4.22;;
75087;SDS011;63664;44.868;40.600;2022-10-15T03:11:30;10.15;;;4.82;;
75087;SDS011;63664;44.868;40.600;2022-10-15T03:13:56;11.50;;;5.07;;
75087;SDS011;63664;44.868;40.600;2022-10-15T03:16:23;8.93;;;4.30;;
75087;SDS011;63664;44.868;40.600;2022-10-15T03:18:49;7.30;;;4.30;;
75087;SDS011;63664;44.868;40.600;2022-10-15T03:21:17;11.38;;;4.75;;
75087;SDS011;63664;44.868;40.600;2022-10-15T03:23:43;9.38;;;4.80;;
75087;SDS011;63664;44.868;40.600;2022-10-15T03:26:16;9.23;;;4.57;;
75087;SDS011;63664;44.868;40.600;2022-10-15T03:28:43;7.53;;;4.63;;
75087;SDS011;63664;44.868;40.600;2022-10-15T03:31:12;12.50;;;4.95;;
75087;SDS011;63664;44.868;40.600;2022-10-15T03:33:39;10.65;;;5.30;;
75087;SDS011;63664;44.868;40.600;2022-10-15T03:36:05;9.68;;;5.38;;
75087;SDS011;63664;44.868;40.600;2022-10-15T03:38:33;11.20;;;5.07;;
75087;SDS011;63664;44.868;40.600;2022-10-15T03:41:02;15.77;;;5.38;;
75087;SDS011;63664;44.868;40.600;2022-10-15T03:43:40;12.32;;;5.28;;
75087;SDS011;63664;44.868;40.600;2022-10-15T03:46:07;9.80;;;4.85;;
75087;SDS011;63664;44.868;40.600;2022-10-15T03:48:38;14.50;;;5.85;;
75087;SDS011;63664;44.868;40.600;2022-10-15T03:51:04;18.70;;;5.70;;
75087;SDS011;63664;44.868;40.600;2022-10-15T03:53:30;12.48;;;5.38;;
75087;SDS011;63664;44.868;40.600;2022-10-15T03:56:05;11.98;;;5.82;;
75087;SDS011;63664;44.868;40.600;2022-10-15T03:58:36;13.45;;;5.70;;
75087;SDS011;63664;44.868;40.600;2022-10-15T04:01:08;11.27;;;5.82;;
75087;SDS011;63664;44.868;40.600;2022-10-15T04:03:40;14.13;;;5.93;;
75087;SDS011;63664;44.868;40.600;2022-10-15T04:06:08;9.75;;;5.78;;
75087;SDS011;63664;44.868;40.600;2022-10-15T04:08:36;10.52;;;5.45;;
75087;SDS011;63664;44.868;40.600;2022-10-15T04:11:17;8.93;;;5.53;;
75087;SDS011;63664;44.868;40.600;2022-10-15T04:13:48;10.85;;;6.07;;
75087;SDS011;63664;44.868;40.600;2022-10-15T04:16:15;12.05;;;6.38;;
75087;SDS011;63664;44.868;40.600;2022-10-15T04:18:42;12.73;;;6.75;;
75087;SDS011;63664;44.868;40.600;2022-10-15T04:21:08;11.32;;;5.93;;
75087;SDS011;63664;44.868;40.600;2022-10-15T04:23:35;9.45;;;5.90;;
75087;SDS011;63664;44.868;40.600;2022-10-15T04:26:20;10.30;;;5.68;;
75087;SDS011;63664;44.868;40.600;2022-10-15T04:28:47;10.60;;;6.63;;
75087;SDS011;63664;44.868;40.600;2022-10-15T04:31:14;13.48;;;7.03;;
75087;SDS011;63664;44.868;40.600;2022-10-15T04:33:40;11.38;;;6.97;;
75087;SDS011;63664;44.868;40.600;2022-10-15T04:36:07;18.15;;;8.27;;
75087;SDS011;63664;44.868;40.600;2022-10-15T04:38:47;17.27;;;6.93;;
75087;SDS011;63664;44.868;40.600;2022-10-15T04:41:19;12.95;;;6.50;;
75087;SDS011;63664;44.868;40.600;2022-10-15T04:43:56;11.98;;;6.68;;
75087;SDS011;63664;44.868;40.600;2022-10-15T04:46:23;13.82;;;6.07;;
75087;SDS011;63664;44.868;40.600;2022-10-15T04:48:51;9.85;;;5.95;;
75087;SDS011;63664;44.868;40.600;2022-10-15T04:51:23;10.57;;;6.28;;
75087;SDS011;63664;44.868;40.600;2022-10-15T04:54:01;9.75;;;6.00;;
75087;SDS011;63664;44.868;40.600;2022-10-15T04:56:29;10.32;;;5.82;;
75087;SDS011;63664;44.868;40.600;2022-10-15T04:58:55;12.35;;;5.65;;
75087;SDS011;63664;44.868;40.600;2022-10-15T05:01:26;9.73;;;5.03;;
75087;SDS011;63664;44.868;40.600;2022-10-15T05:04:00;10.05;;;5.32;;
75087;SDS011;63664;44.868;40.600;2022-10-15T05:06:28;11.00;;;5.93;;
75087;SDS011;63664;44.868;40.600;2022-10-15T05:09:12;10.00;;;5.65;;
75087;SDS011;63664;44.868;40.600;2022-10-15T05:11:43;7.53;;;4.75;;
75087;SDS011;63664;44.868;40.600;2022-10-15T05:14:11;9.25;;;4.90;;
75087;SDS011;63664;44.868;40.600;2022-10-15T05:16:38;17.17;;;5.75;;
75087;SDS011;63664;44.868;40.600;2022-10-15T05:19:05;12.50;;;5.75;;
75087;SDS011;63664;44.868;40.600;2022-10-15T05:21:35;16.88;;;5.82;;
75087;SDS011;63664;44.868;40.600;2022-10-15T05:24:08;9.52;;;5.43;;
75087;SDS011;63664;44.868;40.600;2022-10-15T05:26:57;10.73;;;4.90;;
75087;SDS011;63664;44.868;40.600;2022-10-15T05:29:26;9.35;;;4.60;;
75087;SDS011;63664;44.868;40.600;2022-10-15T05:31:53;11.38;;;5.13;;
75087;SDS011;63664;44.868;40.600;2022-10-15T05:34:23;8.95;;;5.07;;
75087;SDS011;63664;44.868;40.600;2022-10-15T05:37:01;9.60;;;5.15;;
75087;SDS011;63664;44.868;40.600;2022-10-15T05:39:27;10.05;;;5.20;;
75087;SDS011;63664;44.868;40.600;2022-10-15T05:41:54;11.40;;;5.97;;
75087;SDS011;63664;44.868;40.600;2022-10-15T05:44:31;8.45;;;4.97;;
75087;SDS011;63664;44.868;40.600;2022-10-15T05:46:57;9.48;;;5.18;;
75087;SDS011;63664;44.868;40.600;2022-10-15T05:49:24;9.90;;;5.30;;
75087;SDS011;63664;44.868;40.600;2022-10-15T05:52:10;9.07;;;4.90;;
75087;SDS011;63664;44.868;40.600;2022-10-15T05:54:56;14.55;;;4.85;;
75087;SDS011;63664;44.868;40.600;2022-10-15T05:57:22;15.40;;;5.40;;
75087;SDS011;63664;44.868;40.600;2022-10-15T05:59:49;12.55;;;5.88;;
75087;SDS011;63664;44.868;40.600;2022-10-15T06:02:15;15.38;;;5.90;;
75087;SDS011;63664;44.868;40.600;2022-10-15T06:04:42;14.15;;;6.55;;
75087;SDS011;63664;44.868;40.600;2022-10-15T06:07:08;11.43;;;6.57;;
75087;SDS011;63664;44.868;40.600;2022-10-15T06:09:35;11.45;;;5.72;;
75087;SDS011;63664;44.868;40.600;2022-10-15T06:12:01;12.90;;;5.97;;
75087;SDS011;63664;44.868;40.600;2022-10-15T06:14:27;14.65;;;6.78;;
75087;SDS011;63664;44.868;40.600;2022-10-15T06:16:54;12.38;;;5.80;;
75087;SDS011;63664;44.868;40.600;2022-10-15T06:19:20;11.50;;;5.38;;
75087;SDS011;63664;44.868;40.600;2022-10-15T06:21:47;10.52;;;4.88;;
75087;SDS011;63664;44.868;40.600;2022-10-15T06:24:13;10.50;;;5.40;;
75087;SDS011;63664;44.868;40.600;2022-10-15T06:26:39;14.55;;;5.90;;
75087;SDS011;63664;44.868;40.600;2022-10-15T06:29:05;11.75;;;5.75;;
75087;SDS011;63664;44.868;40.600;2022-10-15T06:31:31;9.68;;;5.28;;
75087;SDS011;63664;44.868;40.600;2022-10-15T06:33:58;14.13;;;5.78;;
75087;SDS011;63664;44.868;40.600;2022-10-15T06:36:27;11.27;;;5.90;;
75087;SDS011;63664;44.868;40.600;2022-10-15T06:38:55;11.35;;;5.32;;
75087;SDS011;63664;44.868;40.600;2022-10-15T06:41:21;8.40;;;4.43;;
75087;SDS011;63664;44.868;40.600;2022-10-15T06:43:47;9.35;;;5.00;;
75087;SDS011;63664;44.868;40.600;2022-10-15T06:46:14;9.80;;;4.80;;
75087;SDS011;63664;44.868;40.600;2022-10-15T06:48:41;10.05;;;5.45;;
75087;SDS011;63664;44.868;40.600;2022-10-15T06:51:07;12.73;;;5.60;;
75087;SDS011;63664;44.868;40.600;2022-10-15T06:53:33;8.85;;;5.00;;
75087;SDS011;63664;44.868;40.600;2022-10-15T06:56:09;8.98;;;4.75;;
75087;SDS011;63664;44.868;40.600;2022-10-15T06:58:36;9.38;;;5.60;;
75087;SDS011;63664;44.868;40.600;2022-10-15T07:01:06;9.50;;;4.72;;
75087;SDS011;63664;44.868;40.600;2022-10-15T07:03:33;10.55;;;5.35;;
75087;SDS011;63664;44.868;40.600;2022-10-15T07:06:02;8.13;;;4.35;;
75087;SDS011;63664;44.868;40.600;2022-10-15T07:08:30;8.65;;;5.18;;
75087;SDS011;63664;44.868;40.600;2022-10-15T07:10:56;14.88;;;5.40;;
75087;SDS011;63664;44.868;40.600;2022-10-15T07:13:24;8.55;;;3.83;;
75087;SDS011;63664;44.868;40.600;2022-10-15T07:15:51;12.80;;;4.93;;
75087;SDS011;63664;44.868;40.600;2022-10-15T07:18:21;9.75;;;4.85;;
75087;SDS011;63664;44.868;40.600;2022-10-15T07:20:47;8.95;;;4.88;;
75087;SDS011;63664;44.868;40.600;2022-10-15T07:23:13;9.20;;;5.07;;
75087;SDS011;63664;44.868;40.600;2022-10-15T07:25:40;7.22;;;4.85;;
75087;SDS011;63664;44.868;40.600;2022-10-15T07:28:06;7.60;;;4.68;;
75087;SDS011;63664;44.868;40.600;2022-10-15T07:30:32;11.98;;;4.40;;
75087;SDS011;63664;44.868;40.600;2022-10-15T07:32:59;7.95;;;3.70;;
75087;SDS011;63664;44.868;40.600;2022-10-15T07:35:25;8.13;;;3.72;;
75087;SDS011;63664;44.868;40.600;2022-10-15T07:37:52;12.50;;;4.57;;
75087;SDS011;63664;44.868;40.600;2022-10-15T07:40:19;14.20;;;6.10;;
75087;SDS011;63664;44.868;40.600;2022-10-15T07:42:52;16.67;;;6.15;;
75087;SDS011;63664;44.868;40.600;2022-10-15T07:45:20;13.98;;;5.57;;
75087;SDS011;63664;44.868;40.600;2022-10-15T07:47:47;9.65;;;4.55;;
75087;SDS011;63664;44.868;40.600;2022-10-15T07:50:13;9.15;;;4.28;;
75087;SDS011;63664;44.868;40.600;2022-10-15T07:52:40;7.95;;;4.28;;
75087;SDS011;63664;44.868;40.600;2022-10-15T07:55:06;20.50;;;9.02;;
75087;SDS011;63664;44.868;40.600;2022-10-15T07:57:33;10.52;;;4.32;;
75087;SDS011;63664;44.868;40.600;2022-10-15T08:00:00;10.50;;;4.45;;
75087;SDS011;63664;44.868;40.600;2022-10-15T08:02:26;18.10;;;6.53;;
75087;SDS011;63664;44.868;40.600;2022-10-15T08:04:53;15.15;;;9.38;;
75087;SDS011;63664;44.868;40.600;2022-10-15T08:07:19;28.67;;;12.48;;
75087;SDS011;63664;44.868;40.600;2022-10-15T08:09:45;11.77;;;6.40;;
75087;SDS011;63664;44.868;40.600;2022-10-15T08:12:11;14.20;;;7.03;;
75087;SDS011;63664;44.868;40.600;2022-10-15T08:14:38;13.50;;;6.40;;
75087;SDS011;63664;44.868;40.600;2022-10-15T08:17:05;10.63;;;5.85;;
75087;SDS011;63664;44.868;40.600;2022-10-15T08:19:33;9.25;;;4.65;;
75087;SDS011;63664;44.868;40.600;2022-10-15T08:21:59;9.05;;;4.28;;
75087;SDS011;63664;44.868;40.600;2022-10-15T08:24:26;8.98;;;4.50;;
75087;SDS011;63664;44.868;40.600;2022-10-15T08:26:52;13.07;;;4.10;;
75087;SDS011;63664;44.868;40.600;2022-10-15T08:29:18;8.35;;;4.53;;
75087;SDS011;63664;44.868;40.600;2022-10-15T08:31:44;8.73;;;4.57;;
75087;SDS011;63664;44.868;40.600;2022-10-15T08:34:11;9.65;;;4.53;;
75087;SDS011;63664;44.868;40.600;2022-10-15T08:36:37;8.98;;;4.38;;
75087;SDS011;63664;44.868;40.600;2022-10-15T08:39:03;7.53;;;4.45;;
75087;SDS011;63664;44.868;40.600;2022-10-15T08:41:35;8.73;;;4.22;;
75087;SDS011;63664;44.868;40.600;2022-10-15T08:44:08;13.48;;;5.13;;
75087;SDS011;63664;44.868;40.600;2022-10-15T08:46:47;7.03;;;4.05;;
75087;SDS011;63664;44.868;40.600;2022-10-15T08:49:51;7.85;;;4.07;;
75087;SDS011;63664;44.868;40.600;2022-10-15T08:54:51;10.55;;;3.65;;
75087;SDS011;63664;44.868;40.600;2022-10-15T08:58:04;9.57;;;4.60;;
75087;SDS011;63664;44.868;40.600;2022-10-15T09:00:37;7.72;;;3.58;;
75087;SDS011;63664;44.868;40.600;2022-10-15T09:05:59;9.15;;;3.95;;
75087;SDS011;63664;44.868;40.600;2022-10-15T09:14:23;7.30;;;3.70;;
75087;SDS011;63664;44.868;40.600;2022-10-15T09:16:54;8.52;;;4.97;;
75087;SDS011;63664;44.868;40.600;2022-10-15T09:19:21;7.85;;;4.45;;
75087;SDS011;63664;44.868;40.600;2022-10-15T09:21:50;10.88;;;4.88;;
75087;SDS011;63664;44.868;40.600;2022-10-15T09:24:21;9.70;;;4.55;;
75087;SDS011;63664;44.868;40.600;2022-10-15T09:29:29;8.15;;;4.00;;
75087;SDS011;63664;44.868;40.600;2022-10-15T09:32:24;6.72;;;3.35;;
75087;SDS011;63664;44.868;40.600;2022-10-15T09:37:53;14.32;;;4.32;;
75087;SDS011;63664;44.868;40.600;2022-10-15T09:43:43;7.28;;;3.40;;
75087;SDS011;63664;44.868;40.600;2022-10-15T09:46:13;9.95;;;4.18;;
75087;SDS011;63664;44.868;40.600;2022-10-15T09:48:45;11.40;;;5.72;;
75087;SDS011;63664;44.868;40.600;2022-10-15T09:51:29;10.88;;;4.28;;
75087;SDS011;63664;44.868;40.600;2022-10-15T09:54:12;13.05;;;3.90;;
75087;SDS011;63664;44.868;40.600;2022-10-15T09:56:53;7.25;;;3.08;;
75087;SDS011;63664;44.868;40.600;2022-10-15T09:59:22;8.63;;;3.63;;
75087;SDS011;63664;44.868;40.600;2022-10-15T10:02:01;10.23;;;4.88;;
75087;SDS011;63664;44.868;40.600;2022-10-15T10:04:31;8.02;;;3.72;;
75087;SDS011;63664;44.868;40.600;2022-10-15T10:07:02;5.88;;;3.13;;
75087;SDS011;63664;44.868;40.600;2022-10-15T10:09:35;5.68;;;3.35;;
75087;SDS011;63664;44.868;40.600;2022-10-15T10:12:17;8.07;;;3.63;;
75087;SDS011;63664;44.868;40.600;2022-10-15T10:14:57;8.63;;;4.10;;
75087;SDS011;63664;44.868;40.600;2022-10-15T10:17:27;7.38;;;4.32;;
75087;SDS011;63664;44.868;40.600;2022-10-15T10:20:28;12.95;;;4.30;;
75087;SDS011;63664;44.868;40.600;2022-10-15T10:22:55;5.72;;;3.58;;
75087;SDS011;63664;44.868;40.600;2022-10-15T10:25:27;6.18;;;4.10;;
75087;SDS011;63664;44.868;40.600;2022-10-15T10:28:45;8.05;;;3.63;;
75087;SDS011;63664;44.868;40.600;2022-10-15T10:30:57;7.15;;;3.72;;
75087;SDS011;63664;44.868;40.600;2022-10-15T10:33:33;8.63;;;3.88;;
75087;SDS011;63664;44.868;40.600;2022-10-15T10:36:03;17.77;;;4.32;;
75087;SDS011;63664;44.868;40.600;2022-10-15T10:41:04;4.72;;;2.80;;
75087;SDS011;63664;44.868;40.600;2022-10-15T10:43:35;12.25;;;4.25;;
75087;SDS011;63664;44.868;40.600;2022-10-15T10:46:16;8.32;;;4.45;;
75087;SDS011;63664;44.868;40.600;2022-10-15T10:48:50;10.90;;;4.32;;
75087;SDS011;63664;44.868;40.600;2022-10-15T10:51:22;10.38;;;4.72;;
75087;SDS011;63664;44.868;40.600;2022-10-15T10:54:04;8.15;;;4.22;;
75087;SDS011;63664;44.868;40.600;2022-10-15T10:56:39;8.65;;;4.30;;
75087;SDS011;63664;44.868;40.600;2022-10-15T10:59:15;12.55;;;4.05;;
75087;SDS011;63664;44.868;40.600;2022-10-15T11:01:48;10.07;;;4.00;;
75087;SDS011;63664;44.868;40.600;2022-10-15T11:04:21;8.48;;;4.95;;
75087;SDS011;63664;44.868;40.600;2022-10-15T11:12:34;14.73;;;4.18;;
75087;SDS011;63664;44.868;40.600;2022-10-15T11:26:49;8.23;;;3.75;;
75087;SDS011;63664;44.868;40.600;2022-10-15T11:29:52;7.50;;;3.60;;
75087;SDS011;63664;44.868;40.600;2022-10-15T11:32:31;9.15;;;3.95;;
75087;SDS011;63664;44.868;40.600;2022-10-15T11:40:22;10.15;;;3.20;;
75087;SDS011;63664;44.868;40.600;2022-10-15T11:56:35;13.13;;;4.47;;
75087;SDS011;63664;44.868;40.600;2022-10-15T12:02:00;24.42;;;10.85;;
75087;SDS011;63664;44.868;40.600;2022-10-15T12:04:39;45.50;;;19.73;;
75087;SDS011;63664;44.868;40.600;2022-10-15T12:07:17;45.53;;;19.52;;
75087;SDS011;63664;44.868;40.600;2022-10-15T12:09:49;25.55;;;11.30;;
75087;SDS011;63664;44.868;40.600;2022-10-15T12:12:56;64.70;;;29.77;;
75087;SDS011;63664;44.868;40.600;2022-10-15T12:18:38;12.50;;;6.85;;
75087;SDS011;63664;44.868;40.600;2022-10-15T12:23:55;18.48;;;8.88;;
75087;SDS011;63664;44.868;40.600;2022-10-15T12:28:52;13.27;;;6.85;;
75087;SDS011;63664;44.868;40.600;2022-10-15T12:31:21;32.92;;;10.60;;
75087;SDS011;63664;44.868;40.600;2022-10-15T12:33:50;13.25;;;6.80;;
75087;SDS011;63664;44.868;40.600;2022-10-15T12:36:26;6.35;;;3.55;;
75087;SDS011;63664;44.868;40.600;2022-10-15T12:39:19;8.88;;;4.05;;
75087;SDS011;63664;44.868;40.600;2022-10-15T12:41:49;26.95;;;13.80;;
75087;SDS011;63664;44.868;40.600;2022-10-15T12:44:26;34.60;;;15.40;;
75087;SDS011;63664;44.868;40.600;2022-10-15T12:46:55;37.13;;;13.95;;
75087;SDS011;63664;44.868;40.600;2022-10-15T12:51:54;14.77;;;7.55;;
75087;SDS011;63664;44.868;40.600;2022-10-15T12:54:36;16.08;;;6.15;;
75087;SDS011;63664;44.868;40.600;2022-10-15T12:59:58;9.80;;;5.13;;
75087;SDS011;63664;44.868;40.600;2022-10-15T13:05:04;12.75;;;5.55;;
75087;SDS011;63664;44.868;40.600;2022-10-15T13:07:34;12.35;;;4.93;;
75087;SDS011;63664;44.868;40.600;2022-10-15T13:10:14;16.35;;;8.15;;
75087;SDS011;63664;44.868;40.600;2022-10-15T13:12:52;13.85;;;5.40;;
75087;SDS011;63664;44.868;40.600;2022-10-15T13:15:25;14.98;;;7.60;;
75087;SDS011;63664;44.868;40.600;2022-10-15T13:17:53;20.17;;;9.02;;
75087;SDS011;63664;44.868;40.600;2022-10-15T13:20:35;22.30;;;7.90;;
75087;SDS011;63664;44.868;40.600;2022-10-15T13:28:28;26.90;;;9.15;;
75087;SDS011;63664;44.868;40.600;2022-10-15T13:31:01;30.48;;;10.77;;
75087;SDS011;63664;44.868;40.600;2022-10-15T13:33:32;12.63;;;6.38;;
75087;SDS011;63664;44.868;40.600;2022-10-15T13:36:05;28.55;;;7.70;;
75087;SDS011;63664;44.868;40.600;2022-10-15T13:38:32;19.17;;;8.35;;
75087;SDS011;63664;44.868;40.600;2022-10-15T13:41:02;17.48;;;7.95;;
75087;SDS011;63664;44.868;40.600;2022-10-15T13:43:29;22.25;;;11.73;;
75087;SDS011;63664;44.868;40.600;2022-10-15T13:45:56;18.08;;;9.27;;
75087;SDS011;63664;44.868;40.600;2022-10-15T13:51:02;14.98;;;7.10;;
75087;SDS011;63664;44.868;40.600;2022-10-15T13:53:31;11.57;;;6.15;;
75087;SDS011;63664;44.868;40.600;2022-10-15T13:59:02;28.42;;;11.98;;
75087;SDS011;63664;44.868;40.600;2022-10-15T14:01:29;20.20;;;8.27;;
75087;SDS011;63664;44.868;40.600;2022-10-15T14:04:01;30.52;;;14.48;;
75087;SDS011;63664;44.868;40.600;2022-10-15T14:06:31;14.02;;;5.68;;
75087;SDS011;63664;44.868;40.600;2022-10-15T14:11:48;12.35;;;6.28;;
75087;SDS011;63664;44.868;40.600;2022-10-15T14:17:03;16.48;;;9.18;;
75087;SDS011;63664;44.868;40.600;2022-10-15T14:19:32;28.38;;;12.18;;
75087;SDS011;63664;44.868;40.600;2022-10-15T14:22:01;28.50;;;13.57;;
75087;SDS011;63664;44.868;40.600;2022-10-15T14:24:29;55.85;;;23.75;;
75087;SDS011;63664;44.868;40.600;2022-10-15T14:27:02;62.67;;;25.13;;
75087;SDS011;63664;44.868;40.600;2022-10-15T14:29:49;54.50;;;21.08;;
75087;SDS011;63664;44.868;40.600;2022-10-15T14:38:00;37.83;;;17.92;;
75087;SDS011;63664;44.868;40.600;2022-10-15T14:40:28;36.60;;;18.50;;
75087;SDS011;63664;44.868;40.600;2022-10-15T14:48:01;38.00;;;17.45;;
75087;SDS011;63664;44.868;40.600;2022-10-15T14:50:41;44.45;;;23.30;;
75087;SDS011;63664;44.868;40.600;2022-10-15T14:53:13;38.63;;;19.05;;
75087;SDS011;63664;44.868;40.600;2022-10-15T14:56:18;36.33;;;17.02;;
75087;SDS011;63664;44.868;40.600;2022-10-15T14:58:48;45.22;;;21.73;;
75087;SDS011;63664;44.868;40.600;2022-10-15T15:01:21;31.88;;;16.35;;
75087;SDS011;63664;44.868;40.600;2022-10-15T15:03:50;36.47;;;16.25;;
75087;SDS011;63664;44.868;40.600;2022-10-15T15:06:19;51.05;;;23.70;;
75087;SDS011;63664;44.868;40.600;2022-10-15T15:08:45;55.38;;;25.35;;
75087;SDS011;63664;44.868;40.600;2022-10-15T15:11:12;75.20;;;33.97;;
75087;SDS011;63664;44.868;40.600;2022-10-15T15:13:48;63.35;;;31.38;;
75087;SDS011;63664;44.868;40.600;2022-10-15T15:16:16;106.30;;;45.20;;
75087;SDS011;63664;44.868;40.600;2022-10-15T15:18:43;52.60;;;24.60;;
75087;SDS011;63664;44.868;40.600;2022-10-15T15:21:19;59.05;;;27.05;;
75087;SDS011;63664;44.868;40.600;2022-10-15T15:26:13;56.92;;;23.98;;
75087;SDS011;63664;44.868;40.600;2022-10-15T15:28:39;70.18;;;30.67;;
75087;SDS011;63664;44.868;40.600;2022-10-15T15:31:06;84.75;;;32.08;;
75087;SDS011;63664;44.868;40.600;2022-10-15T15:33:38;70.93;;;30.80;;
75087;SDS011;63664;44.868;40.600;2022-10-15T15:36:06;70.20;;;29.05;;
75087;SDS011;63664;44.868;40.600;2022-10-15T15:38:34;86.40;;;41.75;;
75087;SDS011;63664;44.868;40.600;2022-10-15T15:41:01;119.97;;;62.30;;
75087;SDS011;63664;44.868;40.600;2022-10-15T15:43:36;72.22;;;39.33;;
75087;SDS011;63664;44.868;40.600;2022-10-15T15:46:02;65.40;;;29.92;;
75087;SDS011;63664;44.868;40.600;2022-10-15T15:48:28;61.13;;;27.40;;
75087;SDS011;63664;44.868;40.600;2022-10-15T15:50:55;50.88;;;23.35;;
75087;SDS011;63664;44.868;40.600;2022-10-15T15:53:28;48.92;;;21.35;;
75087;SDS011;63664;44.868;40.600;2022-10-15T15:55:55;60.60;;;24.67;;
75087;SDS011;63664;44.868;40.600;2022-10-15T15:58:21;59.60;;;23.92;;
75087;SDS011;63664;44.868;40.600;2022-10-15T16:00:48;49.28;;;18.15;;
75087;SDS011;63664;44.868;40.600;2022-10-15T16:03:14;48.90;;;21.23;;
75087;SDS011;63664;44.868;40.600;2022-10-15T16:05:41;37.70;;;15.68;;
75087;SDS011;63664;44.868;40.600;2022-10-15T16:08:07;59.72;;;23.58;;
75087;SDS011;63664;44.868;40.600;2022-10-15T16:10:35;58.25;;;20.88;;
75087;SDS011;63664;44.868;40.600;2022-10-15T16:13:01;55.17;;;21.50;;
75087;SDS011;63664;44.868;40.600;2022-10-15T16:15:28;58.83;;;24.58;;
75087;SDS011;63664;44.868;40.600;2022-10-15T16:17:54;44.42;;;20.02;;
75087;SDS011;63664;44.868;40.600;2022-10-15T16:20:20;50.03;;;20.45;;
75087;SDS011;63664;44.868;40.600;2022-10-15T16:22:50;49.55;;;21.20;;
75087;SDS011;63664;44.868;40.600;2022-10-15T16:25:18;59.70;;;20.17;;
75087;SDS011;63664;44.868;40.600;2022-10-15T16:27:45;47.00;;;17.80;;
75087;SDS011;63664;44.868;40.600;2022-10-15T16:30:16;48.58;;;18.30;;
75087;SDS011;63664;44.868;40.600;2022-10-15T16:32:44;61.65;;;23.50;;
75087;SDS011;63664;44.868;40.600;2022-10-15T16:35:10;37.30;;;15.15;;
75087;SDS011;63664;44.868;40.600;2022-10-15T16:37:36;39.70;;;14.30;;
75087;SDS011;63664;44.868;40.600;2022-10-15T16:40:03;38.00;;;14.32;;
75087;SDS011;63664;44.868;40.600;2022-10-15T16:42:30;42.17;;;17.58;;
75087;SDS011;63664;44.868;40.600;2022-10-15T16:44:56;39.15;;;17.15;;
75087;SDS011;63664;44.868;40.600;2022-10-15T16:47:22;54.65;;;18.17;;
75087;SDS011;63664;44.868;40.600;2022-10-15T16:49:49;80.45;;;28.30;;
75087;SDS011;63664;44.868;40.600;2022-10-15T16:52:15;64.47;;;25.27;;
75087;SDS011;63664;44.868;40.600;2022-10-15T16:54:41;62.65;;;20.83;;
75087;SDS011;63664;44.868;40.600;2022-10-15T16:57:07;39.40;;;15.85;;
75087;SDS011;63664;44.868;40.600;2022-10-15T16:59:34;58.35;;;21.65;;
75087;SDS011;63664;44.868;40.600;2022-10-15T17:02:00;38.25;;;15.63;;